Terminal Aerodrome Forecast
Issued by NWS

Home | Current Version | Previous Version | Text Only | Print | Product List | Glossary On
Versions: 1 2 3 4 5 6 7 8 9 10 11 12 13 14 15 16 17
000
FTUS45 KREV 260524
TAFTRK
TAF
KTRK 260524Z 2606/2706 00000KT 3SM BR VCFG SCT002
     FM261600 21008KT P6SM FEW040
     FM261900 21016G26KT P6SM SCT040 BKN180 WS020/23040KT
     FM262300 21018G30KT P6SM VCSH BKN035 WS015/23040KT
     FM270200 22012G22KT 1/2SM SN VV009=

USA.gov is the U.S. government's official web portal to all federal, state and local government web resources and services.